OETR

Turaif Domestic Airport

Saudi Arabia
TAF OETR 181100Z 1812/1918 28008G18KT 7000 FEW040
Issued Valid From Valid To
Jun-18 @ 11:00 UTC
(2 hours ago)
Jun-18 @ 12:00 UTC
(an hour ago)
Jun-19 @ 18:00 UTC
(-1 days ago)
Jun-18 @ 12:00 to Jun-19 @ 18:00
TAF OETR 181100Z 1812/1918 28008G18KT 7000 FEW040
Wind Visibility Clouds
280° at 8 knots
 Gusting to 18 knots
7,001 meters
  • Few at 4,000' AGL
TAF OETR 181100Z 1812/1918 28008G18KT 7000 FEW040
Issued Jun-18 @ 11:00 UTC
(2 hours ago)
Valid From Jun-18 @ 12:00 UTC
(an hour ago)
Valid To Jun-19 @ 18:00 UTC
(-1 days ago)
Jun-18 @ 12:00 - Jun-19 @ 18:00
Wind Visibility
280° at 8 knots
 Gusting to 18 knots
7,001 meters
Clouds
  • Few at 4,000' AGL